createdAt,value
2023-08-07T00:00:10.184Z,13.07
2023-08-07T00:02:37.673Z,8.35
2023-08-07T00:05:05.179Z,8.50
2023-08-07T00:07:32.490Z,8.63
2023-08-07T00:10:01.757Z,8.93
2023-08-07T00:12:29.117Z,11.52
2023-08-07T00:14:56.436Z,7.05
2023-08-07T00:17:24.170Z,10.55
2023-08-07T00:19:51.493Z,8.63
2023-08-07T00:22:18.819Z,9.33
2023-08-07T00:24:46.152Z,6.53
2023-08-07T00:27:13.566Z,9.05
2023-08-07T00:29:40.915Z,11.30
2023-08-07T00:32:08.575Z,7.18
2023-08-07T00:34:36.030Z,8.47
2023-08-07T00:37:03.399Z,7.13
2023-08-07T00:39:30.759Z,7.22
2023-08-07T00:41:58.083Z,8.43
2023-08-07T00:44:25.823Z,6.07
2023-08-07T00:46:53.574Z,6.27
2023-08-07T00:49:21.856Z,8.30
2023-08-07T00:51:49.636Z,6.57
2023-08-07T00:54:18.450Z,6.53
2023-08-07T00:56:46.117Z,6.25
2023-08-07T00:59:14.730Z,3.53
2023-08-07T01:01:42.065Z,6.05
2023-08-07T01:04:09.476Z,5.85
2023-08-07T01:06:36.750Z,11.73
2023-08-07T01:09:04.111Z,6.55
2023-08-07T01:11:50.492Z,9.70
2023-08-07T01:14:17.781Z,5.57
2023-08-07T01:17:00.190Z,8.25
2023-08-07T01:19:29.209Z,5.85
2023-08-07T01:22:26.180Z,9.05
2023-08-07T01:24:53.526Z,8.47
2023-08-07T01:27:20.854Z,6.47
2023-08-07T01:29:54.994Z,10.05
2023-08-07T01:32:42.655Z,7.32
2023-08-07T01:35:13.239Z,8.07
2023-08-07T01:37:42.671Z,7.90
2023-08-07T01:40:10.700Z,8.02
2023-08-07T01:42:38.740Z,5.05
2023-08-07T01:45:06.726Z,8.05
2023-08-07T01:47:34.209Z,7.07
2023-08-07T01:50:01.606Z,5.70
2023-08-07T01:52:28.966Z,6.20
2023-08-07T01:54:56.319Z,8.00
2023-08-07T01:57:23.757Z,8.55
2023-08-07T01:59:51.478Z,10.90
2023-08-07T02:02:18.845Z,7.73
2023-08-07T02:04:46.151Z,8.98
2023-08-07T02:07:13.466Z,10.88
2023-08-07T02:09:40.864Z,11.27
2023-08-07T02:12:09.843Z,5.63
2023-08-07T02:14:37.144Z,7.23
2023-08-07T02:17:04.546Z,13.05
2023-08-07T02:19:31.892Z,9.20
2023-08-07T02:21:59.887Z,11.95
2023-08-07T02:24:27.283Z,6.78
2023-08-07T02:26:55.118Z,7.27
2023-08-07T02:29:22.663Z,10.43
2023-08-07T02:31:50.017Z,10.50
2023-08-07T02:34:17.429Z,7.85
2023-08-07T02:36:44.749Z,7.90
2023-08-07T02:39:12.745Z,6.60
2023-08-07T02:41:40.100Z,9.65
2023-08-07T02:44:07.381Z,7.63
2023-08-07T02:46:37.100Z,7.35
2023-08-07T02:49:12.659Z,10.88
2023-08-07T02:51:39.952Z,10.35
2023-08-07T02:54:07.356Z,7.73
2023-08-07T02:56:34.859Z,16.27
2023-08-07T02:59:02.880Z,9.82
2023-08-07T03:01:30.802Z,10.35
2023-08-07T03:03:58.185Z,7.65
2023-08-07T03:06:25.774Z,10.43
2023-08-07T03:08:53.156Z,11.00
2023-08-07T03:11:20.458Z,6.38
2023-08-07T03:13:50.088Z,9.82
2023-08-07T03:16:17.649Z,13.13
2023-08-07T03:18:45.160Z,10.50
2023-08-07T03:21:12.557Z,10.73
2023-08-07T03:23:41.065Z,10.45
2023-08-07T03:26:19.053Z,9.57
2023-08-07T03:28:49.813Z,6.63
2023-08-07T03:31:17.688Z,7.17
2023-08-07T03:33:45.093Z,8.25
2023-08-07T03:36:14.208Z,8.23
2023-08-07T03:38:42.528Z,8.40
2023-08-07T03:41:10.049Z,11.60
2023-08-07T03:43:39.124Z,7.93
2023-08-07T03:46:06.494Z,8.30
2023-08-07T03:48:33.967Z,6.40
2023-08-07T03:51:04.464Z,4.32
2023-08-07T03:53:32.619Z,12.48
2023-08-07T03:56:00.021Z,12.93
2023-08-07T03:58:27.779Z,5.28
2023-08-07T04:00:55.409Z,8.60
2023-08-07T04:03:22.913Z,10.18
2023-08-07T04:05:54.482Z,7.55
2023-08-07T04:08:24.006Z,9.07
2023-08-07T04:11:00.080Z,7.90
2023-08-07T04:13:28.877Z,5.50
2023-08-07T04:15:56.467Z,8.63
2023-08-07T04:18:23.721Z,10.38
2023-08-07T04:20:52.495Z,6.40
2023-08-07T04:23:21.168Z,6.45
2023-08-07T04:25:52.165Z,6.65
2023-08-07T04:28:19.537Z,9.98
2023-08-07T04:30:47.298Z,11.68
2023-08-07T04:33:15.196Z,7.93
2023-08-07T04:35:42.504Z,7.82
2023-08-07T04:38:09.860Z,9.85
2023-08-07T04:40:37.256Z,7.43
2023-08-07T04:43:04.645Z,10.73
2023-08-07T04:45:31.972Z,7.47
2023-08-07T04:47:59.314Z,8.77
2023-08-07T04:50:26.648Z,11.77
2023-08-07T04:52:53.912Z,8.45
2023-08-07T04:55:21.292Z,12.75
2023-08-07T04:57:49.085Z,10.47
2023-08-07T05:00:16.826Z,8.68
2023-08-07T05:02:44.560Z,7.53
2023-08-07T05:05:12.176Z,10.55
2023-08-07T05:07:39.500Z,10.55
2023-08-07T05:10:07.085Z,7.97
2023-08-07T05:12:34.416Z,9.43
2023-08-07T05:15:01.716Z,4.50
2023-08-07T05:17:29.106Z,13.73
2023-08-07T05:19:56.398Z,8.30
2023-08-07T05:22:23.697Z,11.90
2023-08-07T05:24:51.549Z,10.95
2023-08-07T05:27:18.867Z,9.93
2023-08-07T05:29:46.288Z,11.77
2023-08-07T05:32:14.400Z,13.93
2023-08-07T05:34:41.982Z,9.17
2023-08-07T05:37:09.583Z,17.63
2023-08-07T05:39:37.352Z,9.98
2023-08-07T05:42:05.559Z,10.57
2023-08-07T05:44:33.190Z,9.38
2023-08-07T05:47:00.512Z,9.37
2023-08-07T05:49:27.918Z,8.32
2023-08-07T05:51:55.657Z,9.23
2023-08-07T05:54:23.217Z,8.00
2023-08-07T05:56:50.476Z,9.20
2023-08-07T05:59:17.836Z,11.07
2023-08-07T06:01:45.164Z,12.05
2023-08-07T06:04:12.538Z,9.88
2023-08-07T06:06:40.818Z,12.32
2023-08-07T06:09:08.561Z,8.20
2023-08-07T06:11:36.139Z,8.70
2023-08-07T06:14:03.495Z,8.02
2023-08-07T06:16:30.868Z,11.50
2023-08-07T06:18:58.334Z,10.77
2023-08-07T06:21:25.791Z,11.52
2023-08-07T06:23:53.252Z,7.23
2023-08-07T06:26:20.644Z,5.78
2023-08-07T06:28:48.027Z,9.38
2023-08-07T06:31:15.438Z,7.82
2023-08-07T06:33:42.856Z,7.18
2023-08-07T06:36:10.156Z,10.30
2023-08-07T06:38:37.786Z,9.52
2023-08-07T06:41:05.210Z,11.02
2023-08-07T06:43:32.557Z,7.30
2023-08-07T06:46:00.720Z,8.27
2023-08-07T06:48:28.056Z,9.47
2023-08-07T06:50:55.392Z,5.53
2023-08-07T06:53:22.711Z,9.55
2023-08-07T06:55:50.037Z,7.53
2023-08-07T06:58:17.430Z,8.40
2023-08-07T07:00:44.799Z,7.83
2023-08-07T07:03:12.129Z,10.82
2023-08-07T07:05:39.761Z,8.15
2023-08-07T07:08:07.106Z,13.18
2023-08-07T07:10:34.448Z,10.25
2023-08-07T07:13:02.052Z,5.20
2023-08-07T07:15:29.445Z,8.05
2023-08-07T07:17:56.782Z,11.15
2023-08-07T07:20:24.148Z,10.57
2023-08-07T07:22:51.509Z,9.90
2023-08-07T07:25:18.860Z,11.20
2023-08-07T07:27:46.168Z,7.38
2023-08-07T07:30:13.782Z,9.57
2023-08-07T07:32:41.212Z,9.85
2023-08-07T07:35:08.738Z,13.07
2023-08-07T07:37:36.023Z,9.47
2023-08-07T07:40:03.710Z,11.45
2023-08-07T07:42:31.054Z,5.07
2023-08-07T07:44:58.342Z,11.05
2023-08-07T07:47:25.717Z,10.32
2023-08-07T07:50:05.488Z,10.03
2023-08-07T07:52:32.818Z,6.63
2023-08-07T07:55:00.175Z,7.15
2023-08-07T07:57:27.679Z,10.18
2023-08-07T07:59:55.321Z,9.93
2023-08-07T08:02:25.369Z,12.77
2023-08-07T08:04:53.427Z,6.20
2023-08-07T08:07:21.191Z,7.25
2023-08-07T08:09:48.579Z,9.77
2023-08-07T08:12:15.938Z,7.38
2023-08-07T08:14:55.422Z,9.90
2023-08-07T08:17:23.387Z,6.50
2023-08-07T08:19:51.488Z,5.78
2023-08-07T08:22:19.984Z,10.20
2023-08-07T08:24:48.935Z,11.65
2023-08-07T08:27:18.371Z,9.17
2023-08-07T08:29:47.007Z,6.82
2023-08-07T08:32:14.953Z,10.68
2023-08-07T08:34:42.299Z,6.88
2023-08-07T08:37:11.705Z,11.15
2023-08-07T08:39:39.314Z,7.60
2023-08-07T08:42:06.931Z,8.93
2023-08-07T08:44:38.306Z,9.05
2023-08-07T08:47:06.554Z,10.13
2023-08-07T08:49:45.315Z,10.35
2023-08-07T08:52:13.338Z,7.50
2023-08-07T08:54:41.570Z,8.70
2023-08-07T08:57:09.149Z,8.43
2023-08-07T08:59:36.632Z,6.15
2023-08-07T09:02:04.137Z,9.18
2023-08-07T09:04:31.542Z,14.13
2023-08-07T09:06:59.098Z,5.28
2023-08-07T09:09:26.823Z,5.93
2023-08-07T09:11:54.279Z,10.25
2023-08-07T09:14:23.950Z,5.50
2023-08-07T09:16:51.762Z,5.70
2023-08-07T09:19:19.350Z,6.75
2023-08-07T09:21:46.716Z,11.18
2023-08-07T09:24:14.072Z,8.00
2023-08-07T09:26:46.434Z,5.45
2023-08-07T09:29:14.049Z,10.37
2023-08-07T09:31:46.693Z,9.68
2023-08-07T09:34:17.608Z,6.78
2023-08-07T09:36:44.939Z,8.35
2023-08-07T09:39:13.323Z,7.22
2023-08-07T09:41:40.666Z,8.43
2023-08-07T09:44:14.897Z,5.70
2023-08-07T09:46:43.537Z,7.32
2023-08-07T09:49:11.006Z,10.18
2023-08-07T09:51:48.421Z,5.80
2023-08-07T09:54:15.730Z,9.53
2023-08-07T09:56:43.197Z,5.82
2023-08-07T09:59:10.661Z,3.78
2023-08-07T10:01:41.483Z,6.95
2023-08-07T10:04:09.323Z,12.75
2023-08-07T10:06:37.113Z,5.97
2023-08-07T10:09:05.156Z,5.90
2023-08-07T10:11:32.965Z,6.75
2023-08-07T10:14:00.850Z,9.35
2023-08-07T10:16:31.686Z,5.43
2023-08-07T10:18:58.963Z,7.47
2023-08-07T10:21:26.656Z,7.72
2023-08-07T10:23:55.223Z,5.97
2023-08-07T10:26:24.139Z,7.70
2023-08-07T10:28:52.009Z,7.60
2023-08-07T10:31:20.303Z,7.47
2023-08-07T10:33:48.180Z,6.70
2023-08-07T10:36:18.154Z,5.93
2023-08-07T10:38:45.602Z,7.40
2023-08-07T10:41:16.126Z,5.43
2023-08-07T10:43:47.049Z,7.27
2023-08-07T10:46:15.162Z,5.35
2023-08-07T10:48:48.242Z,5.32
2023-08-07T10:51:16.343Z,5.10
2023-08-07T10:53:45.578Z,7.28
2023-08-07T10:56:33.299Z,4.87
2023-08-07T10:59:09.120Z,8.80
2023-08-07T11:01:36.535Z,5.07
2023-08-07T11:04:07.936Z,6.88
2023-08-07T11:06:36.179Z,3.55
2023-08-07T11:09:04.877Z,4.50
2023-08-07T11:11:40.767Z,6.50
2023-08-07T11:14:11.909Z,8.35
2023-08-07T11:16:39.346Z,4.95
2023-08-07T11:19:07.002Z,4.22
2023-08-07T11:21:34.944Z,5.80
2023-08-07T11:24:02.766Z,4.07
2023-08-07T11:26:30.212Z,6.53
2023-08-07T11:28:58.124Z,6.63
2023-08-07T11:31:26.427Z,4.55
2023-08-07T11:33:54.253Z,3.10
2023-08-07T11:36:21.530Z,8.70
2023-08-07T11:38:48.858Z,6.35
2023-08-07T11:41:17.884Z,6.60
2023-08-07T11:43:45.505Z,5.10
2023-08-07T11:46:14.101Z,9.23
2023-08-07T11:48:42.685Z,5.20
2023-08-07T11:51:10.126Z,6.10
2023-08-07T11:53:38.580Z,3.60
2023-08-07T11:56:10.758Z,5.32
2023-08-07T11:58:39.065Z,2.23
2023-08-07T12:01:17.963Z,5.25
2023-08-07T12:04:06.427Z,3.53
2023-08-07T12:06:35.276Z,4.03
2023-08-07T12:09:03.095Z,4.57
2023-08-07T12:11:31.248Z,4.23
2023-08-07T12:14:01.590Z,2.47
2023-08-07T12:16:33.831Z,2.88
2023-08-07T12:19:01.168Z,3.05
2023-08-07T12:21:29.094Z,6.97
2023-08-07T12:23:57.383Z,4.53
2023-08-07T12:26:24.962Z,4.30
2023-08-07T12:28:52.432Z,2.22
2023-08-07T12:31:20.119Z,8.45
2023-08-07T12:33:47.460Z,3.17
2023-08-07T12:38:46.097Z,5.10
2023-08-07T12:43:45.447Z,5.05
2023-08-07T12:48:42.943Z,3.33
2023-08-07T12:51:10.296Z,4.10
2023-08-07T12:53:37.639Z,3.10
2023-08-07T12:56:06.623Z,2.38
2023-08-07T12:58:34.981Z,4.18
2023-08-07T13:01:02.411Z,2.10
2023-08-07T13:03:29.843Z,3.28
2023-08-07T13:05:57.177Z,3.60
2023-08-07T13:08:24.585Z,2.83
2023-08-07T13:10:51.999Z,4.57
2023-08-07T13:13:19.294Z,1.43
2023-08-07T13:15:46.655Z,2.10
2023-08-07T13:18:15.478Z,4.03
2023-08-07T13:20:42.873Z,2.85
2023-08-07T13:23:10.182Z,2.30
2023-08-07T13:25:37.730Z,2.47
2023-08-07T13:28:07.739Z,3.58
2023-08-07T13:30:37.586Z,2.85
2023-08-07T13:33:05.543Z,2.92
2023-08-07T13:35:36.247Z,2.13
2023-08-07T13:38:06.894Z,3.40
2023-08-07T13:40:34.683Z,2.40
2023-08-07T13:43:08.569Z,3.25
2023-08-07T13:45:36.003Z,5.03
2023-08-07T13:48:03.471Z,4.45
2023-08-07T13:50:30.932Z,3.67
2023-08-07T13:53:12.219Z,3.78
2023-08-07T13:55:42.162Z,3.80
2023-08-07T13:58:10.690Z,2.92
2023-08-07T14:00:39.921Z,3.65
2023-08-07T14:03:07.518Z,3.60
2023-08-07T14:05:35.023Z,1.70
2023-08-07T14:08:03.584Z,3.03
2023-08-07T14:10:30.951Z,4.45
2023-08-07T14:12:58.262Z,1.98
2023-08-07T14:15:25.978Z,5.53
2023-08-07T14:17:54.585Z,4.25
2023-08-07T14:20:22.734Z,5.82
2023-08-07T14:22:50.052Z,3.17
2023-08-07T14:25:17.407Z,8.82
2023-08-07T14:27:45.062Z,4.17
2023-08-07T14:30:12.704Z,2.28
2023-08-07T14:32:40.391Z,2.95
2023-08-07T14:35:08.275Z,4.03
2023-08-07T14:37:35.582Z,3.60
2023-08-07T14:40:04.329Z,5.17
2023-08-07T14:42:31.639Z,5.47
2023-08-07T14:44:59.297Z,5.03
2023-08-07T14:47:26.863Z,6.35
2023-08-07T14:49:54.628Z,4.28
2023-08-07T14:52:22.095Z,2.50
2023-08-07T14:54:49.426Z,2.60
2023-08-07T14:57:16.740Z,2.63
2023-08-07T14:59:44.051Z,3.33
2023-08-07T15:02:11.425Z,4.38
2023-08-07T15:04:38.768Z,3.47
2023-08-07T15:07:06.341Z,5.05
2023-08-07T15:09:33.619Z,5.07
2023-08-07T15:12:01.247Z,4.65
2023-08-07T15:14:28.725Z,4.88
2023-08-07T15:16:56.052Z,2.70
2023-08-07T15:19:23.513Z,2.67
2023-08-07T15:21:52.365Z,3.72
2023-08-07T15:24:19.631Z,4.40
2023-08-07T15:26:47.294Z,4.55
2023-08-07T15:29:14.646Z,3.43
2023-08-07T15:31:42.112Z,3.80
2023-08-07T15:34:09.448Z,2.53
2023-08-07T15:36:36.726Z,4.15
2023-08-07T15:39:04.107Z,3.90
2023-08-07T15:41:31.439Z,3.40
2023-08-07T15:43:58.734Z,3.08
2023-08-07T15:46:26.218Z,2.05
2023-08-07T15:48:53.565Z,2.92
2023-08-07T15:51:20.979Z,3.20
2023-08-07T15:53:48.407Z,3.37
2023-08-07T15:56:15.963Z,2.38
2023-08-07T15:58:43.236Z,3.45
2023-08-07T16:01:12.076Z,3.50
2023-08-07T16:03:39.572Z,2.47
2023-08-07T16:06:06.949Z,3.03
2023-08-07T16:08:34.344Z,5.38
2023-08-07T16:11:03.626Z,2.72
2023-08-07T16:13:30.981Z,8.18
2023-08-07T16:15:58.345Z,2.47
2023-08-07T16:18:25.889Z,2.83
2023-08-07T16:20:54.458Z,2.60
2023-08-07T16:23:21.911Z,3.15
2023-08-07T16:25:49.772Z,3.30
2023-08-07T16:28:17.276Z,3.13
2023-08-07T16:30:44.582Z,1.83
2023-08-07T16:33:12.032Z,2.60
2023-08-07T16:35:39.402Z,3.92
2023-08-07T16:38:06.753Z,2.60
2023-08-07T16:40:36.261Z,4.07
2023-08-07T16:43:06.483Z,2.00
2023-08-07T16:45:34.125Z,2.95
2023-08-07T16:48:01.688Z,4.25
2023-08-07T16:50:29.430Z,3.30
2023-08-07T16:52:58.406Z,3.40
2023-08-07T16:55:25.758Z,2.33
2023-08-07T16:57:53.104Z,3.08
2023-08-07T17:00:20.546Z,2.90
2023-08-07T17:02:49.489Z,1.83
2023-08-07T17:05:16.886Z,1.83
2023-08-07T17:07:44.217Z,1.70
2023-08-07T17:10:14.320Z,1.42
2023-08-07T17:12:43.731Z,2.33
2023-08-07T17:15:11.452Z,3.63
2023-08-07T17:17:39.054Z,1.52
2023-08-07T17:20:06.997Z,1.30
2023-08-07T17:22:34.338Z,3.08
2023-08-07T17:25:01.703Z,3.28
2023-08-07T17:27:29.032Z,2.92
2023-08-07T17:29:56.398Z,1.65
2023-08-07T17:32:23.758Z,2.33
2023-08-07T17:34:51.120Z,1.98
2023-08-07T17:37:18.598Z,1.10
2023-08-07T17:39:46.089Z,1.98
2023-08-07T17:42:13.428Z,1.98
2023-08-07T17:44:40.727Z,2.67
2023-08-07T17:47:08.947Z,2.40
2023-08-07T17:49:38.374Z,2.25
2023-08-07T17:52:06.324Z,1.63
2023-08-07T17:54:33.625Z,2.50
2023-08-07T17:57:01.091Z,2.40
2023-08-07T17:59:28.631Z,2.65
2023-08-07T18:01:56.412Z,1.73
2023-08-07T18:04:23.763Z,1.65
2023-08-07T18:06:53.386Z,2.30
2023-08-07T18:09:20.821Z,1.00
2023-08-07T18:11:48.105Z,2.63
2023-08-07T18:14:15.760Z,3.72
2023-08-07T18:16:43.223Z,3.70
2023-08-07T18:19:10.585Z,3.35
2023-08-07T18:21:37.918Z,3.03
2023-08-07T18:24:05.285Z,1.83
2023-08-07T18:26:32.594Z,3.55
2023-08-07T18:28:59.893Z,1.63
2023-08-07T18:31:31.320Z,3.10
2023-08-07T18:33:58.665Z,1.00
2023-08-07T18:36:26.945Z,2.72
2023-08-07T18:38:54.373Z,4.78
2023-08-07T18:41:21.769Z,1.90
2023-08-07T18:43:49.158Z,3.95
2023-08-07T18:46:17.823Z,3.23
2023-08-07T18:48:45.393Z,5.13
2023-08-07T18:51:12.736Z,4.43
2023-08-07T18:53:40.371Z,3.00
2023-08-07T18:56:08.485Z,1.95
2023-08-07T18:58:35.834Z,1.70
2023-08-07T19:01:03.137Z,2.83
2023-08-07T19:03:30.785Z,2.55
2023-08-07T19:05:58.246Z,2.55
2023-08-07T19:08:25.600Z,2.45
2023-08-07T19:10:52.914Z,2.90
2023-08-07T19:13:20.257Z,1.83
2023-08-07T19:15:47.718Z,1.67
2023-08-07T19:18:15.186Z,2.75
2023-08-07T19:20:43.248Z,1.90
2023-08-07T19:23:12.049Z,3.07
2023-08-07T19:25:39.636Z,4.10
2023-08-07T19:28:07.196Z,2.83
2023-08-07T19:30:34.709Z,1.50
2023-08-07T19:33:02.313Z,2.38
2023-08-07T19:35:29.750Z,4.17
2023-08-07T19:37:57.218Z,3.53
2023-08-07T19:40:26.087Z,2.58
2023-08-07T19:42:53.779Z,2.60
2023-08-07T19:45:21.542Z,1.92
2023-08-07T19:47:49.358Z,2.20
2023-08-07T19:50:17.267Z,1.80
2023-08-07T19:52:44.638Z,3.35
2023-08-07T19:55:11.963Z,4.78
2023-08-07T19:57:40.188Z,2.28
2023-08-07T20:00:07.940Z,5.53
2023-08-07T20:02:35.720Z,4.15
2023-08-07T20:05:04.832Z,3.92
2023-08-07T20:07:32.399Z,3.97
2023-08-07T20:09:59.700Z,3.80
2023-08-07T20:12:27.040Z,10.97
2023-08-07T20:14:54.603Z,2.30
2023-08-07T20:17:22.187Z,4.75
2023-08-07T20:19:49.743Z,4.40
2023-08-07T20:22:17.238Z,3.47
2023-08-07T20:24:44.534Z,3.60
2023-08-07T20:27:11.864Z,3.50
2023-08-07T20:29:39.523Z,3.35
2023-08-07T20:32:07.000Z,2.75
2023-08-07T20:34:34.367Z,3.78
2023-08-07T20:37:04.280Z,3.50
2023-08-07T20:39:32.230Z,3.47
2023-08-07T20:41:59.761Z,5.28
2023-08-07T20:44:27.320Z,5.10
2023-08-07T20:46:54.630Z,2.58
2023-08-07T20:49:21.939Z,2.80
2023-08-07T20:51:49.235Z,4.72
2023-08-07T20:54:16.532Z,6.10
2023-08-07T20:56:43.820Z,5.45
2023-08-07T20:59:11.227Z,3.15
2023-08-07T21:01:41.068Z,4.27
2023-08-07T21:04:08.376Z,3.13
2023-08-07T21:06:35.658Z,6.25
2023-08-07T21:09:03.144Z,4.82
2023-08-07T21:11:30.413Z,5.70
2023-08-07T21:13:57.706Z,4.67
2023-08-07T21:16:25.095Z,6.68
2023-08-07T21:18:52.918Z,4.43
2023-08-07T21:21:20.185Z,4.28
2023-08-07T21:23:47.492Z,4.82
2023-08-07T21:26:14.788Z,4.90
2023-08-07T21:28:42.074Z,5.45
2023-08-07T21:31:09.482Z,7.53
2023-08-07T21:33:36.822Z,7.82
2023-08-07T21:36:04.659Z,9.77
2023-08-07T21:38:31.964Z,6.97
2023-08-07T21:41:00.522Z,6.20
2023-08-07T21:43:27.819Z,5.60
2023-08-07T21:45:55.184Z,5.70
2023-08-07T21:48:22.499Z,4.97
2023-08-07T21:50:49.825Z,7.97
2023-08-07T21:53:17.060Z,10.23
2023-08-07T21:55:44.381Z,5.15
2023-08-07T21:58:11.933Z,8.13
2023-08-07T22:00:39.270Z,6.35
2023-08-07T22:03:06.963Z,5.90
2023-08-07T22:05:34.446Z,9.48
2023-08-07T22:08:01.855Z,10.50
2023-08-07T22:10:29.318Z,8.20
2023-08-07T22:12:56.634Z,6.65
2023-08-07T22:15:23.928Z,8.00
2023-08-07T22:17:51.348Z,10.85
2023-08-07T22:20:18.636Z,9.68
2023-08-07T22:22:46.202Z,7.80
2023-08-07T22:25:13.823Z,10.95
2023-08-07T22:27:41.612Z,9.63
2023-08-07T22:30:09.355Z,10.63
2023-08-07T22:32:37.398Z,7.00
2023-08-07T22:35:04.974Z,7.93
2023-08-07T22:37:32.307Z,9.60
2023-08-07T22:39:59.813Z,7.47
2023-08-07T22:42:27.106Z,7.38
2023-08-07T22:44:54.408Z,7.28
2023-08-07T22:47:21.747Z,7.15
2023-08-07T22:49:49.082Z,11.60
2023-08-07T22:52:16.320Z,10.43
2023-08-07T22:54:43.633Z,9.43
2023-08-07T22:57:11.000Z,10.27
2023-08-07T22:59:38.260Z,7.20
2023-08-07T23:02:05.743Z,11.68
2023-08-07T23:04:33.155Z,7.87
2023-08-07T23:07:00.522Z,7.72
2023-08-07T23:09:27.802Z,14.43
2023-08-07T23:11:55.972Z,8.02
2023-08-07T23:14:23.463Z,10.45
2023-08-07T23:16:50.782Z,10.63
2023-08-07T23:19:18.052Z,8.40
2023-08-07T23:21:45.401Z,10.55
2023-08-07T23:24:12.689Z,8.23
2023-08-07T23:26:40.893Z,7.00
2023-08-07T23:29:08.218Z,7.17
2023-08-07T23:31:36.470Z,8.63
2023-08-07T23:34:04.977Z,8.65
2023-08-07T23:36:32.366Z,7.25
2023-08-07T23:38:59.635Z,11.23
2023-08-07T23:41:27.037Z,10.03
2023-08-07T23:43:54.293Z,9.73
2023-08-07T23:46:21.747Z,11.02
2023-08-07T23:48:49.142Z,12.27
2023-08-07T23:51:16.477Z,13.77
2023-08-07T23:53:43.781Z,10.00
2023-08-07T23:56:12.231Z,9.88
2023-08-07T23:58:39.623Z,12.68
